createdAt,value
2019-03-12T00:01:06.713Z,4.33
2019-03-12T00:03:36.066Z,4.60
2019-03-12T00:06:05.568Z,4.13
2019-03-12T00:08:34.724Z,4.80
2019-03-12T00:11:04.081Z,4.57
2019-03-12T00:13:33.209Z,4.03
2019-03-12T00:16:02.227Z,4.43
2019-03-12T00:18:32.041Z,4.33
2019-03-12T00:21:01.107Z,4.60
2019-03-12T00:23:30.157Z,4.53
2019-03-12T00:25:59.548Z,4.13
2019-03-12T00:28:28.566Z,4.30
2019-03-12T00:30:57.987Z,4.47
2019-03-12T00:33:27.369Z,4.50
2019-03-12T00:35:56.373Z,4.13
2019-03-12T00:38:25.805Z,4.70
2019-03-12T00:40:54.990Z,5.10
2019-03-12T00:43:24.372Z,4.10
2019-03-12T00:45:53.474Z,4.23
2019-03-12T00:48:22.475Z,4.53
2019-03-12T00:50:51.517Z,4.40
2019-03-12T00:53:20.611Z,4.37
2019-03-12T00:55:49.945Z,4.43
2019-03-12T00:58:18.998Z,3.70
2019-03-12T01:00:48.009Z,4.23
2019-03-12T01:03:17.031Z,4.37
2019-03-12T01:05:46.091Z,4.50
2019-03-12T01:08:15.505Z,4.87
2019-03-12T01:10:45.423Z,4.17
2019-03-12T01:13:20.582Z,4.03
2019-03-12T01:15:49.679Z,4.73
2019-03-12T01:18:18.717Z,4.27
2019-03-12T01:20:47.843Z,4.50
2019-03-12T01:23:19.632Z,4.67
2019-03-12T01:25:49.737Z,4.10
2019-03-12T01:28:18.758Z,4.40
2019-03-12T01:30:48.127Z,3.80
2019-03-12T01:33:17.197Z,3.80
2019-03-12T01:35:46.540Z,4.33
2019-03-12T01:38:15.625Z,4.33
2019-03-12T01:40:45.015Z,4.67
2019-03-12T01:43:14.065Z,3.73
2019-03-12T01:45:43.129Z,3.97
2019-03-12T01:48:12.167Z,4.20
2019-03-12T01:50:41.583Z,3.87
2019-03-12T01:53:10.647Z,4.97
2019-03-12T01:55:40.121Z,3.83
2019-03-12T01:58:09.168Z,4.30
2019-03-12T02:00:38.645Z,4.03
2019-03-12T02:03:07.766Z,4.23
2019-03-12T02:05:36.767Z,3.93
2019-03-12T02:08:06.110Z,3.57
2019-03-12T02:10:35.430Z,4.13
2019-03-12T02:13:04.721Z,3.87
2019-03-12T02:15:34.380Z,4.50
2019-03-12T02:18:03.835Z,3.50
2019-03-12T02:20:32.934Z,4.07
2019-03-12T02:23:01.985Z,4.30
2019-03-12T02:25:31.035Z,4.10
2019-03-12T02:28:00.102Z,3.63
2019-03-12T02:30:29.589Z,4.33
2019-03-12T02:32:58.762Z,3.30
2019-03-12T02:35:30.032Z,4.00
2019-03-12T02:37:59.490Z,3.97
2019-03-12T02:40:28.536Z,3.97
2019-03-12T02:42:57.920Z,3.53
2019-03-12T02:45:26.961Z,3.70
2019-03-12T02:47:56.107Z,3.67
2019-03-12T02:50:25.495Z,3.37
2019-03-12T02:52:54.492Z,3.57
2019-03-12T02:55:23.867Z,3.47
2019-03-12T02:57:52.960Z,3.93
2019-03-12T03:00:22.482Z,3.50
2019-03-12T03:02:51.561Z,3.40
2019-03-12T03:05:20.912Z,3.93
2019-03-12T03:07:52.025Z,4.10
2019-03-12T03:10:21.431Z,3.37
2019-03-12T03:12:50.743Z,3.00
2019-03-12T03:15:21.926Z,4.20
2019-03-12T03:17:50.972Z,3.87
2019-03-12T03:20:20.009Z,4.00
2019-03-12T03:22:49.212Z,3.97
2019-03-12T03:25:18.510Z,3.57
2019-03-12T03:27:47.519Z,3.80
2019-03-12T03:30:19.016Z,3.33
2019-03-12T03:32:48.010Z,3.80
2019-03-12T03:35:17.736Z,3.20
2019-03-12T03:37:46.750Z,4.17
2019-03-12T03:40:17.737Z,3.77
2019-03-12T03:42:46.924Z,4.40
2019-03-12T03:45:16.047Z,3.17
2019-03-12T03:47:45.448Z,3.13
2019-03-12T03:50:14.983Z,4.10
2019-03-12T03:52:43.987Z,3.57
2019-03-12T03:55:14.737Z,3.30
2019-03-12T03:57:43.917Z,3.40
2019-03-12T04:00:15.941Z,3.33
2019-03-12T04:02:45.361Z,3.13
2019-03-12T04:05:14.402Z,3.30
2019-03-12T04:07:43.422Z,3.10
2019-03-12T04:10:13.200Z,3.30
2019-03-12T04:12:42.668Z,3.73
2019-03-12T04:15:12.229Z,3.10
2019-03-12T04:17:41.317Z,2.70
2019-03-12T04:20:10.345Z,3.57
2019-03-12T04:22:39.372Z,3.20
2019-03-12T04:25:08.972Z,3.07
2019-03-12T04:27:38.008Z,3.50
2019-03-12T04:30:07.578Z,3.40
2019-03-12T04:32:36.603Z,3.43
2019-03-12T04:35:06.991Z,3.13
2019-03-12T04:37:36.016Z,3.10
2019-03-12T04:40:05.849Z,3.30
2019-03-12T04:42:34.874Z,2.80
2019-03-12T04:45:04.156Z,3.43
2019-03-12T04:47:33.208Z,2.70
2019-03-12T04:50:02.308Z,3.03
2019-03-12T04:52:31.790Z,3.03
2019-03-12T04:55:00.818Z,3.67
2019-03-12T04:57:29.828Z,3.47
2019-03-12T04:59:58.911Z,2.87
2019-03-12T05:02:27.900Z,2.97
2019-03-12T05:04:56.910Z,3.30
2019-03-12T05:07:26.065Z,3.83
2019-03-12T05:09:55.068Z,2.90
2019-03-12T05:12:24.179Z,2.23
2019-03-12T05:14:53.225Z,2.97
2019-03-12T05:17:30.226Z,3.37
2019-03-12T05:19:59.628Z,3.13
2019-03-12T05:22:28.648Z,3.00
2019-03-12T05:24:58.275Z,3.03
2019-03-12T05:27:27.669Z,3.30
2019-03-12T05:29:57.071Z,2.97
2019-03-12T05:32:26.142Z,2.63
2019-03-12T05:34:55.261Z,2.80
2019-03-12T05:37:24.867Z,3.00
2019-03-12T05:39:53.941Z,2.83
2019-03-12T05:42:23.750Z,3.17
2019-03-12T05:44:52.762Z,2.50
2019-03-12T05:47:21.855Z,2.93
2019-03-12T05:49:51.478Z,3.23
2019-03-12T05:52:21.152Z,3.47
2019-03-12T05:54:50.624Z,3.00
2019-03-12T05:57:19.996Z,3.60
2019-03-12T05:59:49.036Z,3.07
2019-03-12T06:02:18.393Z,3.10
2019-03-12T06:04:47.415Z,2.80
2019-03-12T06:07:16.763Z,3.40
2019-03-12T06:09:45.774Z,3.43
2019-03-12T06:12:14.870Z,3.70
2019-03-12T06:14:44.251Z,3.00
2019-03-12T06:17:13.559Z,2.90
2019-03-12T06:19:42.938Z,2.90
2019-03-12T06:22:12.346Z,2.90
2019-03-12T06:24:41.776Z,2.90
2019-03-12T06:27:13.899Z,2.80
2019-03-12T06:29:43.005Z,3.63
2019-03-12T06:32:19.158Z,2.97
2019-03-12T06:34:52.282Z,2.90
2019-03-12T06:37:37.159Z,3.17
2019-03-12T06:40:38.291Z,2.93
2019-03-12T06:43:29.514Z,3.13
2019-03-12T06:46:06.570Z,3.73
2019-03-12T06:48:43.857Z,3.37
2019-03-12T06:51:23.318Z,2.50
2019-03-12T06:54:10.130Z,2.27
2019-03-12T06:57:16.729Z,2.57
2019-03-12T07:00:11.054Z,2.97
2019-03-12T07:02:56.178Z,2.67
2019-03-12T07:05:43.243Z,3.13
2019-03-12T07:08:23.745Z,2.87
2019-03-12T07:11:18.050Z,3.67
2019-03-12T07:13:54.604Z,3.07
2019-03-12T07:16:46.043Z,2.97
2019-03-12T07:19:32.754Z,3.23
2019-03-12T07:22:09.090Z,2.97
2019-03-12T07:24:50.172Z,3.37
2019-03-12T07:27:28.262Z,3.43
2019-03-12T07:30:13.642Z,2.73
2019-03-12T07:32:50.982Z,3.70
2019-03-12T07:35:43.172Z,3.20
2019-03-12T07:38:40.477Z,3.20
2019-03-12T07:41:32.227Z,3.50
2019-03-12T07:44:10.748Z,2.70
2019-03-12T07:47:04.936Z,3.03
2019-03-12T07:49:52.778Z,2.90
2019-03-12T07:52:46.920Z,3.07
2019-03-12T07:55:37.671Z,3.37
2019-03-12T07:58:35.137Z,3.20
2019-03-12T08:01:19.900Z,2.90
2019-03-12T08:04:13.832Z,3.10
2019-03-12T08:07:00.492Z,2.80
2019-03-12T08:09:42.388Z,3.03
2019-03-12T08:12:18.840Z,2.50
2019-03-12T08:15:22.276Z,2.97
2019-03-12T08:17:58.486Z,3.27
2019-03-12T08:20:33.409Z,2.73
2019-03-12T08:23:15.918Z,2.73
2019-03-12T08:26:11.467Z,3.17
2019-03-12T08:28:56.578Z,3.70
2019-03-12T08:31:36.771Z,3.10
2019-03-12T08:34:23.675Z,3.00
2019-03-12T08:37:02.922Z,2.77
2019-03-12T08:39:56.823Z,2.53
2019-03-12T08:42:54.455Z,3.10
2019-03-12T08:45:36.191Z,2.43
2019-03-12T08:48:23.322Z,2.70
2019-03-12T08:51:17.268Z,3.00
2019-03-12T08:54:05.634Z,2.90
2019-03-12T08:56:53.570Z,2.50
2019-03-12T08:59:44.889Z,2.60
2019-03-12T09:02:31.308Z,2.93
2019-03-12T09:05:22.577Z,3.17
2019-03-12T09:08:05.646Z,2.70
2019-03-12T09:10:52.360Z,3.03
2019-03-12T09:13:58.933Z,2.97
2019-03-12T09:16:45.920Z,3.00
2019-03-12T09:19:49.045Z,2.90
2019-03-12T09:22:28.242Z,3.13
2019-03-12T09:25:03.594Z,2.53
2019-03-12T09:27:48.143Z,1.97
2019-03-12T09:30:45.262Z,3.17
2019-03-12T09:33:20.350Z,2.73
2019-03-12T09:36:11.411Z,2.50
2019-03-12T09:38:58.315Z,2.97
2019-03-12T09:41:46.300Z,3.17
2019-03-12T09:44:53.038Z,2.97
2019-03-12T09:47:41.138Z,2.57
2019-03-12T09:50:26.604Z,2.63
2019-03-12T09:53:08.741Z,2.53
2019-03-12T09:55:47.318Z,3.10
2019-03-12T09:58:30.568Z,2.70
2019-03-12T10:01:18.592Z,3.00
2019-03-12T10:04:09.491Z,2.37
2019-03-12T10:07:13.460Z,2.63
2019-03-12T10:09:59.539Z,2.30
2019-03-12T10:12:59.484Z,2.70
2019-03-12T10:15:47.484Z,3.17
2019-03-12T10:18:27.222Z,2.93
2019-03-12T10:21:05.821Z,2.70
2019-03-12T10:23:45.503Z,2.70
2019-03-12T10:26:22.723Z,2.57
2019-03-12T10:28:59.802Z,3.10
2019-03-12T10:31:57.107Z,3.00
2019-03-12T10:34:53.987Z,3.13
2019-03-12T10:37:40.578Z,2.77
2019-03-12T10:40:19.379Z,2.50
2019-03-12T10:43:25.385Z,3.03
2019-03-12T10:46:08.052Z,2.57
2019-03-12T10:48:37.485Z,3.07
2019-03-12T10:51:06.864Z,3.30
2019-03-12T10:53:35.903Z,2.57
2019-03-12T10:56:05.283Z,2.47
2019-03-12T10:58:34.315Z,2.80
2019-03-12T11:01:03.700Z,2.83
2019-03-12T11:03:32.709Z,2.87
2019-03-12T11:06:01.970Z,3.50
2019-03-12T11:08:31.321Z,3.40
2019-03-12T11:11:00.778Z,3.40
2019-03-12T11:13:29.788Z,3.47
2019-03-12T11:15:59.249Z,3.00
2019-03-12T11:18:28.265Z,2.90
2019-03-12T11:20:58.855Z,3.23
2019-03-12T11:23:28.550Z,3.10
2019-03-12T11:25:57.942Z,3.50
2019-03-12T11:28:27.016Z,3.00
2019-03-12T11:30:56.186Z,3.60
2019-03-12T11:33:25.635Z,3.17
2019-03-12T11:35:54.689Z,3.23
2019-03-12T11:38:23.975Z,3.17
2019-03-12T11:40:53.479Z,2.93
2019-03-12T11:43:22.522Z,3.67
2019-03-12T11:45:51.831Z,3.10
2019-03-12T11:48:20.880Z,3.17
2019-03-12T11:50:49.945Z,3.43
2019-03-12T11:53:18.979Z,3.10
2019-03-12T11:55:47.994Z,3.80
2019-03-12T11:58:17.523Z,3.60
2019-03-12T12:00:51.494Z,3.43
2019-03-12T12:03:20.504Z,3.20
2019-03-12T12:05:49.591Z,2.90
2019-03-12T12:08:19.015Z,3.07
2019-03-12T12:10:48.693Z,3.13
2019-03-12T12:13:18.612Z,3.77
2019-03-12T12:15:47.648Z,3.23
2019-03-12T12:18:17.065Z,3.70
2019-03-12T12:20:46.129Z,3.63
2019-03-12T12:23:15.544Z,3.57
2019-03-12T12:25:44.630Z,3.40
2019-03-12T12:28:13.649Z,3.17
2019-03-12T12:30:42.680Z,3.20
2019-03-12T12:33:11.996Z,2.90
2019-03-12T12:35:41.045Z,3.20
2019-03-12T12:38:10.087Z,3.23
2019-03-12T12:40:39.386Z,3.67
2019-03-12T12:43:08.500Z,3.37
2019-03-12T12:45:37.925Z,3.17
2019-03-12T12:48:06.964Z,3.67
2019-03-12T12:50:36.017Z,3.43
2019-03-12T12:53:05.032Z,2.90
2019-03-12T12:55:34.072Z,2.80
2019-03-12T12:58:03.499Z,3.13
2019-03-12T13:00:32.981Z,2.40
2019-03-12T13:03:02.023Z,2.27
2019-03-12T13:05:31.085Z,2.40
2019-03-12T13:08:00.120Z,2.27
2019-03-12T13:10:29.181Z,2.63
2019-03-12T13:12:58.325Z,2.60
2019-03-12T13:15:27.762Z,2.67
2019-03-12T13:17:56.820Z,2.50
2019-03-12T13:20:25.883Z,2.57
2019-03-12T13:22:54.903Z,2.37
2019-03-12T13:25:23.990Z,1.47
2019-03-12T13:27:53.393Z,2.03
2019-03-12T13:30:23.039Z,2.10
2019-03-12T13:32:52.546Z,2.40
2019-03-12T13:35:21.557Z,1.90
2019-03-12T13:37:51.274Z,2.40
2019-03-12T13:40:20.634Z,2.30
2019-03-12T13:42:49.691Z,2.30
2019-03-12T13:45:19.502Z,2.67
2019-03-12T13:47:48.540Z,2.70
2019-03-12T13:50:18.221Z,2.90
2019-03-12T13:52:47.469Z,2.40
2019-03-12T13:55:16.716Z,2.53
2019-03-12T13:57:45.999Z,2.83
2019-03-12T14:00:17.407Z,2.73
2019-03-12T14:02:46.861Z,2.70
2019-03-12T14:05:15.881Z,2.27
2019-03-12T14:07:44.964Z,2.57
2019-03-12T14:10:19.093Z,2.87
2019-03-12T14:12:48.153Z,2.73
2019-03-12T14:15:20.575Z,2.47
2019-03-12T14:17:49.649Z,3.53
2019-03-12T14:20:42.760Z,1.83
2019-03-12T14:23:13.514Z,2.60
2019-03-12T14:25:42.557Z,2.50
2019-03-12T14:28:11.565Z,2.80
2019-03-12T14:30:40.758Z,2.80
2019-03-12T14:33:09.768Z,2.50
2019-03-12T14:35:50.819Z,2.37
2019-03-12T14:38:10.122Z,2.17
2019-03-12T14:40:39.191Z,2.43
2019-03-12T14:43:08.633Z,2.70
2019-03-12T14:45:38.960Z,2.47
2019-03-12T14:48:22.561Z,2.50
2019-03-12T14:50:51.650Z,3.00
2019-03-12T14:53:22.079Z,2.50
2019-03-12T14:55:51.378Z,2.10
2019-03-12T14:58:20.838Z,2.63
2019-03-12T15:00:49.963Z,2.80
2019-03-12T15:03:19.007Z,2.50
2019-03-12T15:05:48.151Z,2.60
2019-03-12T15:08:20.045Z,3.07
2019-03-12T15:10:49.084Z,2.00
2019-03-12T15:13:18.106Z,3.27
2019-03-12T15:15:47.487Z,2.70
2019-03-12T15:18:16.513Z,2.20
2019-03-12T15:20:45.566Z,2.57
2019-03-12T15:23:14.601Z,2.50
2019-03-12T15:25:44.929Z,2.50
2019-03-12T15:28:17.117Z,2.90
2019-03-12T15:30:46.237Z,2.50
2019-03-12T15:33:15.307Z,2.13
2019-03-12T15:35:44.346Z,2.43
2019-03-12T15:38:13.373Z,3.00
2019-03-12T15:40:42.495Z,2.93
2019-03-12T15:43:11.564Z,3.00
2019-03-12T15:45:40.897Z,3.07
2019-03-12T15:48:09.907Z,2.47
2019-03-12T15:50:39.029Z,2.43
2019-03-12T15:53:08.166Z,2.80
2019-03-12T15:55:37.176Z,2.37
2019-03-12T15:58:06.215Z,2.43
2019-03-12T16:00:35.248Z,3.13
2019-03-12T16:03:04.297Z,2.90
2019-03-12T16:05:33.366Z,3.13
2019-03-12T16:08:02.805Z,2.90
2019-03-12T16:10:32.565Z,2.80
2019-03-12T16:13:01.585Z,2.40
2019-03-12T16:15:31.069Z,2.73
2019-03-12T16:18:00.126Z,3.67
2019-03-12T16:20:29.923Z,2.30
2019-03-12T16:22:59.343Z,3.00
2019-03-12T16:25:28.361Z,3.17
2019-03-12T16:27:57.724Z,3.30
2019-03-12T16:30:26.755Z,3.73
2019-03-12T16:32:55.828Z,3.13
2019-03-12T16:35:25.194Z,3.23
2019-03-12T16:37:54.590Z,2.37
2019-03-12T16:40:23.704Z,3.40
2019-03-12T16:42:52.733Z,2.90
2019-03-12T16:45:22.073Z,3.27
2019-03-12T16:47:51.233Z,3.57
2019-03-12T16:50:20.563Z,3.20
2019-03-12T16:52:49.623Z,3.43
2019-03-12T16:55:18.732Z,3.03
2019-03-12T16:57:47.780Z,2.80
2019-03-12T17:00:17.492Z,3.73
2019-03-12T17:02:46.591Z,3.50
2019-03-12T17:05:15.841Z,3.27
2019-03-12T17:07:45.261Z,3.30
2019-03-12T17:10:14.985Z,3.40
2019-03-12T17:12:44.407Z,3.10
2019-03-12T17:15:14.198Z,3.00
2019-03-12T17:17:43.215Z,3.13
2019-03-12T17:20:12.505Z,2.90
2019-03-12T17:22:41.641Z,3.40
2019-03-12T17:25:10.991Z,3.27
2019-03-12T17:27:40.176Z,3.47
2019-03-12T17:30:12.742Z,3.30
2019-03-12T17:32:41.784Z,4.03
2019-03-12T17:35:11.776Z,3.57
2019-03-12T17:37:43.334Z,3.07
2019-03-12T17:40:15.479Z,3.67
2019-03-12T17:42:44.527Z,4.17
2019-03-12T17:45:13.993Z,4.13
2019-03-12T17:47:43.072Z,3.53
2019-03-12T17:50:12.540Z,4.00
2019-03-12T17:52:41.682Z,3.73
2019-03-12T17:55:11.559Z,3.60
2019-03-12T17:57:41.107Z,4.37
2019-03-12T18:00:16.100Z,2.33
2019-03-12T18:02:45.457Z,1.03
2019-03-12T18:05:14.477Z,1.10
2019-03-12T18:07:43.866Z,1.10
2019-03-12T18:10:13.565Z,0.80
2019-03-12T18:12:43.257Z,0.80
2019-03-12T18:15:14.517Z,0.93
2019-03-12T18:17:43.628Z,1.07
2019-03-12T18:20:14.223Z,0.90
2019-03-12T18:22:45.083Z,0.90
2019-03-12T18:25:19.985Z,1.00
2019-03-12T18:27:49.453Z,1.20
2019-03-12T18:30:18.535Z,1.57
2019-03-12T18:32:47.565Z,1.73
2019-03-12T18:35:16.632Z,2.47
2019-03-12T18:37:45.663Z,2.07
2019-03-12T18:40:16.885Z,2.37
2019-03-12T18:42:46.001Z,2.07
2019-03-12T18:45:17.813Z,2.30
2019-03-12T18:47:47.219Z,2.47
2019-03-12T18:50:16.390Z,2.70
2019-03-12T18:52:45.754Z,2.10
2019-03-12T18:55:44.231Z,1.73
2019-03-12T18:58:13.319Z,1.87
2019-03-12T19:00:43.780Z,1.73
2019-03-12T19:03:12.822Z,1.63
2019-03-12T19:05:41.851Z,2.00
2019-03-12T19:08:10.849Z,2.00
2019-03-12T19:10:39.866Z,2.37
2019-03-12T19:13:09.257Z,2.13
2019-03-12T19:15:38.591Z,2.53
2019-03-12T19:18:08.013Z,2.60
2019-03-12T19:20:37.501Z,2.77
2019-03-12T19:23:06.949Z,2.83
2019-03-12T19:25:38.315Z,2.17
2019-03-12T19:28:07.349Z,1.90
2019-03-12T19:30:36.757Z,2.07
2019-03-12T19:33:08.504Z,2.60
2019-03-12T19:35:37.640Z,1.87
2019-03-12T19:38:06.679Z,2.30
2019-03-12T19:40:36.137Z,3.67
2019-03-12T19:43:05.159Z,1.57
2019-03-12T19:45:34.469Z,1.80
2019-03-12T19:48:03.934Z,1.77
2019-03-12T19:50:32.966Z,1.90
2019-03-12T19:53:02.059Z,1.70
2019-03-12T19:55:34.406Z,1.40
2019-03-12T19:58:04.176Z,1.60
2019-03-12T20:00:33.897Z,1.40
2019-03-12T20:03:11.796Z,1.77
2019-03-12T20:05:33.856Z,1.40
2019-03-12T20:08:03.056Z,1.50
2019-03-12T20:11:06.727Z,1.20
2019-03-12T20:14:40.978Z,1.37
2019-03-12T20:17:41.023Z,1.10
2019-03-12T20:20:49.907Z,1.10
2019-03-12T20:24:01.986Z,1.30
2019-03-12T20:27:02.242Z,1.10
2019-03-12T20:30:10.993Z,1.27
2019-03-12T20:33:04.654Z,0.90
2019-03-12T20:36:25.838Z,1.20
2019-03-12T20:39:32.065Z,1.40
2019-03-12T20:42:39.001Z,1.40
2019-03-12T20:46:03.029Z,1.47
2019-03-12T20:49:31.264Z,1.40
2019-03-12T20:52:39.970Z,1.23
2019-03-12T20:55:47.841Z,1.60
2019-03-12T20:58:52.823Z,1.53
2019-03-12T21:02:08.428Z,1.40
2019-03-12T21:05:17.032Z,1.57
2019-03-12T21:08:30.350Z,1.23
2019-03-12T21:11:46.612Z,1.57
2019-03-12T21:14:59.698Z,1.73
2019-03-12T21:18:06.012Z,1.60
2019-03-12T21:21:23.658Z,2.10
2019-03-12T21:24:24.364Z,1.20
2019-03-12T21:27:30.357Z,1.60
2019-03-12T21:29:57.827Z,1.30
2019-03-12T21:32:26.819Z,2.00
2019-03-12T21:34:56.724Z,1.90
2019-03-12T21:37:25.787Z,1.67
2019-03-12T21:39:56.175Z,1.60
2019-03-12T21:42:25.831Z,1.50
2019-03-12T21:44:54.953Z,1.60
2019-03-12T21:47:24.332Z,1.30
2019-03-12T21:49:53.384Z,1.40
2019-03-12T21:52:22.476Z,1.67
2019-03-12T21:54:51.540Z,1.73
2019-03-12T21:57:20.571Z,1.53
2019-03-12T21:59:49.599Z,1.40
2019-03-12T22:02:19.318Z,1.40
2019-03-12T22:04:48.342Z,1.40
2019-03-12T22:07:17.494Z,1.70
2019-03-12T22:09:46.912Z,2.27
2019-03-12T22:12:16.306Z,1.50
2019-03-12T22:14:45.434Z,1.47
2019-03-12T22:17:14.508Z,1.90
2019-03-12T22:19:43.902Z,1.70
2019-03-12T22:22:24.240Z,1.97
2019-03-12T22:24:53.578Z,2.03
2019-03-12T22:27:22.636Z,1.73
2019-03-12T22:29:51.662Z,2.10
2019-03-12T22:32:20.953Z,1.90
2019-03-12T22:34:50.008Z,1.90
2019-03-12T22:37:19.351Z,1.93
2019-03-12T22:39:48.432Z,2.90
2019-03-12T22:42:17.462Z,1.90
2019-03-12T22:44:46.881Z,2.37
2019-03-12T22:47:15.997Z,2.20
2019-03-12T22:49:45.747Z,2.00
2019-03-12T22:52:14.791Z,2.07
2019-03-12T22:54:44.192Z,1.73
2019-03-12T22:57:13.560Z,2.30
2019-03-12T22:59:42.963Z,1.87
2019-03-12T23:02:12.028Z,1.90
2019-03-12T23:04:41.141Z,2.37
2019-03-12T23:07:10.190Z,2.50
2019-03-12T23:09:39.453Z,1.97
2019-03-12T23:12:08.457Z,1.90
2019-03-12T23:14:37.512Z,2.37
2019-03-12T23:17:06.595Z,2.67
2019-03-12T23:19:35.676Z,2.30
2019-03-12T23:22:04.733Z,2.63
2019-03-12T23:24:33.739Z,2.30
2019-03-12T23:27:02.792Z,2.40
2019-03-12T23:29:31.855Z,2.63
2019-03-12T23:32:01.212Z,2.30
2019-03-12T23:34:30.284Z,2.40
2019-03-12T23:36:59.311Z,2.03
2019-03-12T23:39:28.308Z,2.20
2019-03-12T23:41:57.736Z,2.80
2019-03-12T23:44:26.747Z,2.70
2019-03-12T23:46:55.745Z,2.57
2019-03-12T23:49:24.901Z,2.50
2019-03-12T23:51:54.308Z,2.60
2019-03-12T23:54:24.180Z,2.60
2019-03-12T23:56:53.510Z,2.40
2019-03-12T23:59:22.571Z,2.60
